Time;durP1;ratioP1;P1;durP2;ratioP2;P2;SDS_P1;SDS_P2;PMS_P1;PMS_P2;Temp;Humidity;BMP_temperature;BMP_pressure;BME280_temperature;BME280_humidity;BME280_pressure;Samples;Min_cycle;Max_cycle;Signal;HPM_P1;HPM_P2
2021/12/07 00:02:05;;;;;;;40.85;24.55;;;;;;;4.39;60.97;100862.41;5011584;28;20049;-63
2021/12/07 00:04:33;;;;;;;40.75;25.05;;;;;;;4.40;60.92;100861.50;5012940;28;20046;-63
2021/12/07 00:07:00;;;;;;;38.08;24.23;;;;;;;4.45;61.22;100868.31;5012621;28;20046;-66
2021/12/07 00:09:27;;;;;;;37.30;23.77;;;;;;;4.46;61.21;100873.47;5012800;28;20420;-63
2021/12/07 00:11:56;;;;;;;33.83;22.70;;;;;;;4.42;61.40;100877.06;5012458;28;20045;-66
2021/12/07 00:14:24;;;;;;;35.88;21.42;;;;;;;4.42;61.44;100871.88;5012141;28;20065;-63
2021/12/07 00:16:54;;;;;;;30.08;20.27;;;;;;;4.37;61.39;100874.59;5012397;28;20054;-63
2021/12/07 00:19:21;;;;;;;30.15;19.30;;;;;;;4.36;61.40;100872.88;5012398;28;20060;-63
2021/12/07 00:21:48;;;;;;;27.23;17.15;;;;;;;4.35;61.29;100881.56;5012528;28;20050;-69
2021/12/07 00:24:16;;;;;;;27.85;17.02;;;;;;;4.36;60.83;100882.44;5012413;28;20045;-63
2021/12/07 00:26:44;;;;;;;25.67;15.60;;;;;;;4.31;60.94;100887.75;5012590;28;20483;-63
2021/12/07 00:29:12;;;;;;;24.30;14.20;;;;;;;4.30;60.87;100888.63;5012453;28;20054;-63
2021/12/07 00:31:50;;;;;;;18.95;12.05;;;;;;;4.24;60.61;100886.19;5011615;28;20553;-63
2021/12/07 00:34:38;;;;;;;24.10;14.18;;;;;;;4.18;60.42;100876.84;5012504;28;20407;-63
2021/12/07 00:37:05;;;;;;;22.20;13.77;;;;;;;4.15;60.41;100870.88;5012305;28;20050;-63
2021/12/07 00:39:32;;;;;;;21.70;13.90;;;;;;;4.06;60.45;100867.66;5014168;28;20042;-63
2021/12/07 00:41:59;;;;;;;23.95;14.07;;;;;;;3.99;60.30;100871.31;5016183;28;20530;-63
2021/12/07 00:44:27;;;;;;;24.00;15.10;;;;;;;3.96;60.24;100874.00;5016239;28;20042;-63
2021/12/07 00:46:54;;;;;;;24.58;15.13;;;;;;;3.96;59.96;100880.91;5016177;28;20357;-63
2021/12/07 00:49:22;;;;;;;23.33;14.30;;;;;;;3.93;59.90;100876.66;5016222;28;20531;-63
2021/12/07 00:51:49;;;;;;;24.92;14.80;;;;;;;3.91;59.70;100888.81;5015787;28;20082;-63
2021/12/07 00:54:16;;;;;;;21.88;14.73;;;;;;;3.89;59.83;100885.44;5014142;28;20048;-63
2021/12/07 00:56:43;;;;;;;21.45;14.38;;;;;;;3.89;59.49;100883.69;5014192;28;20057;-63
2021/12/07 00:59:10;;;;;;;20.05;13.40;;;;;;;3.87;59.56;100882.88;5014958;28;20049;-63
2021/12/07 01:01:37;;;;;;;19.70;13.25;;;;;;;3.87;59.22;100884.63;5015097;28;20046;-63
2021/12/07 01:04:05;;;;;;;16.27;11.40;;;;;;;3.90;59.05;100887.16;5012994;28;20082;-63
2021/12/07 01:06:45;;;;;;;13.15;9.00;;;;;;;3.91;59.06;100873.25;5015525;28;20050;-63
2021/12/07 01:09:40;;;;;;;14.43;8.30;;;;;;;3.98;58.93;100882.59;5015741;28;20072;-70
2021/12/07 01:25:58;;;;;;;10.65;6.85;;;;;;;4.38;56.38;100849.44;5015578;28;20095;-63
2021/12/07 01:44:26;;;;;;;9.40;6.32;;;;;;;4.27;55.57;100874.88;5015124;28;20502;-63
2021/12/07 01:57:52;;;;;;;10.82;6.30;;;;;;;4.01;56.34;100869.53;5015071;28;20479;-63
2021/12/07 01:59:49;;;;;;;9.10;5.85;;;;;;;3.96;56.39;100879.19;5014923;28;20137;-63
2021/12/07 02:02:19;;;;;;;8.18;5.78;;;;;;;3.95;56.72;100885.28;5014797;28;20045;-66
2021/12/07 02:04:46;;;;;;;8.98;5.97;;;;;;;3.95;56.56;100889.59;5014925;28;20074;-63
2021/12/07 02:07:13;;;;;;;10.05;6.20;;;;;;;3.90;56.58;100900.13;5014719;28;20142;-71
2021/12/07 02:09:46;;;;;;;11.82;7.00;;;;;;;3.87;56.56;100893.28;5014675;28;20053;-63
2021/12/07 02:12:13;;;;;;;12.80;7.18;;;;;;;3.75;56.94;100904.81;5025454;28;20052;-63
2021/12/07 02:14:41;;;;;;;9.93;6.35;;;;;;;3.70;56.90;100900.63;5034351;28;20490;-63
2021/12/07 02:17:13;;;;;;;16.38;8.05;;;;;;;3.65;56.88;100902.50;5034138;28;20056;-63
2021/12/07 02:19:41;;;;;;;13.82;7.63;;;;;;;3.63;56.90;100912.94;5034251;28;20053;-65
2021/12/07 02:22:09;;;;;;;13.85;7.80;;;;;;;3.64;56.96;100908.56;5034185;28;20395;-63
2021/12/07 02:24:37;;;;;;;13.98;8.13;;;;;;;3.62;56.85;100900.84;5034338;28;20053;-63
2021/12/07 02:27:04;;;;;;;15.07;9.18;;;;;;;3.59;56.86;100893.09;5034235;28;20041;-64
2021/12/07 02:29:31;;;;;;;14.45;8.60;;;;;;;3.61;56.93;100891.34;5018796;28;20061;-63
2021/12/07 02:32:00;;;;;;;12.68;8.93;;;;;;;3.64;56.80;100888.66;5014213;28;20050;-73
2021/12/07 02:34:27;;;;;;;17.45;9.63;;;;;;;3.60;56.89;100889.63;5014261;28;20057;-63
2021/12/07 02:36:54;;;;;;;14.70;10.25;;;;;;;3.63;57.11;100880.91;5014035;28;20050;-62
2021/12/07 02:39:30;;;;;;;17.80;10.80;;;;;;;3.66;57.04;100878.25;5014109;28;20085;-73
2021/12/07 02:41:57;;;;;;;17.88;9.40;;;;;;;3.60;57.00;100867.13;5014031;28;20042;-63
2021/12/07 02:44:24;;;;;;;14.70;9.80;;;;;;;3.58;57.27;100861.13;5013530;28;20138;-63
2021/12/07 02:46:51;;;;;;;16.83;10.70;;;;;;;3.55;57.23;100865.53;5013983;28;20050;-63
2021/12/07 02:49:19;;;;;;;17.05;10.13;;;;;;;3.54;57.26;100859.53;5014074;28;20133;-63
2021/12/07 02:51:46;;;;;;;18.90;11.02;;;;;;;3.52;57.37;100852.66;5014131;28;20042;-64
2021/12/07 02:54:13;;;;;;;19.98;11.75;;;;;;;3.55;57.54;100860.34;5013881;28;20065;-63
2021/12/07 02:56:40;;;;;;;20.65;13.45;;;;;;;3.54;57.54;100856.06;5013957;28;20691;-63
2021/12/07 02:59:07;;;;;;;22.33;13.32;;;;;;;3.54;57.48;100845.69;5013721;28;20045;-63
2021/12/07 03:01:41;;;;;;;21.60;13.48;;;;;;;3.52;57.73;100843.13;5012265;28;20081;-63
2021/12/07 03:04:16;;;;;;;21.88;13.90;;;;;;;3.48;57.87;100845.81;5013740;28;20078;-63
2021/12/07 03:26:06;;;;;;;18.38;12.27;;;;;;;3.39;58.67;100898.78;5032959;28;20060;-63
2021/12/07 03:28:43;;;;;;;19.42;12.52;;;;;;;3.36;58.67;100891.94;5033123;28;20049;-63
2021/12/07 03:31:13;;;;;;;20.58;12.02;;;;;;;3.36;58.80;100886.75;5032852;28;20493;-64
2021/12/07 03:33:40;;;;;;;18.75;11.90;;;;;;;3.35;58.59;100892.84;5032919;28;20049;-63
2021/12/07 03:36:08;;;;;;;19.83;12.30;;;;;;;3.32;59.08;100895.50;5019664;28;20046;-63
2021/12/07 03:38:36;;;;;;;23.88;13.40;;;;;;;3.26;58.97;100885.25;5013242;28;20046;-63
2021/12/07 03:41:04;;;;;;;21.15;12.77;;;;;;;3.24;58.88;100877.53;5012990;28;20069;-73
2021/12/07 03:43:31;;;;;;;23.23;13.65;;;;;;;3.17;59.09;100885.50;5013004;28;20050;-63
2021/12/07 03:46:00;;;;;;;25.00;13.25;;;;;;;3.17;59.05;100875.97;5012938;28;20050;-63
2021/12/07 03:48:27;;;;;;;21.27;13.07;;;;;;;3.23;58.88;100883.59;5013076;28;20053;-73
2021/12/07 03:50:54;;;;;;;21.48;12.93;;;;;;;3.19;59.03;100879.38;5012871;28;20050;-63
2021/12/07 03:53:21;;;;;;;21.42;13.05;;;;;;;3.18;59.16;100874.25;5012212;28;20072;-62
2021/12/07 03:55:51;;;;;;;23.98;14.13;;;;;;;3.18;59.30;100872.50;5012857;28;20482;-63
2021/12/07 03:58:18;;;;;;;23.58;13.60;;;;;;;3.19;58.92;100870.75;5012938;28;20053;-63
2021/12/07 04:00:46;;;;;;;22.90;13.23;;;;;;;3.17;59.21;100870.78;5012810;28;20049;-73
2021/12/07 04:03:15;;;;;;;22.10;13.10;;;;;;;3.19;59.44;100868.16;5017775;28;20045;-63
2021/12/07 04:05:53;;;;;;;23.40;14.02;;;;;;;3.20;59.31;100877.63;5029428;28;20053;-63
2021/12/07 04:08:23;;;;;;;24.58;14.07;;;;;;;3.14;59.56;100883.00;5029167;28;20132;-63
2021/12/07 04:10:50;;;;;;;21.80;13.77;;;;;;;3.10;59.49;100883.03;5020495;28;20349;-73
2021/12/07 04:13:17;;;;;;;25.73;13.85;;;;;;;3.08;59.56;100883.97;5009371;28;20053;-63
2021/12/07 04:15:44;;;;;;;23.08;13.38;;;;;;;3.04;59.72;100885.78;5009855;28;20053;-63
2021/12/07 04:18:12;;;;;;;28.73;14.18;;;;;;;2.99;59.74;100889.38;5008865;28;20060;-71
2021/12/07 04:20:39;;;;;;;28.77;14.38;;;;;;;2.98;59.71;100898.03;5009609;28;20076;-64
2021/12/07 04:23:06;;;;;;;24.00;13.77;;;;;;;2.96;59.57;100902.38;5009204;28;20072;-63
2021/12/07 04:25:33;;;;;;;23.52;13.15;;;;;;;2.89;59.68;100902.53;5008567;28;20045;-63
2021/12/07 04:28:01;;;;;;;23.13;13.18;;;;;;;2.90;59.70;100900.78;5009121;28;20053;-64
2021/12/07 04:30:31;;;;;;;22.25;12.63;;;;;;;2.89;59.62;100906.88;5009384;28;20062;-63
2021/12/07 04:32:59;;;;;;;31.23;14.63;;;;;;;2.87;59.35;100916.41;5009068;28;20490;-63
2021/12/07 04:35:27;;;;;;;26.02;14.13;;;;;;;2.81;59.71;100922.59;5009214;28;20096;-65
2021/12/07 04:37:55;;;;;;;24.75;13.75;;;;;;;2.83;59.58;100922.53;5008986;28;20072;-65
2021/12/07 04:40:25;;;;;;;22.92;14.02;;;;;;;2.82;59.60;100924.28;5009005;28;20406;-66
2021/12/07 04:42:53;;;;;;;25.60;14.20;;;;;;;2.87;59.40;100934.53;5008691;28;20054;-65
2021/12/07 04:45:50;;;;;;;25.85;14.02;;;;;;;2.86;59.67;100935.44;5009166;28;20046;-65
2021/12/07 04:59:11;;;;;;;22.88;13.40;;;;;;;3.03;59.39;100935.06;5008705;28;20057;-65
2021/12/07 05:01:38;;;;;;;27.02;13.48;;;;;;;3.06;59.26;100933.28;5009145;28;20061;-65
2021/12/07 05:04:14;;;;;;;24.90;13.90;;;;;;;3.08;59.50;100925.44;5008573;28;20490;-65
2021/12/07 05:06:46;;;;;;;31.52;14.77;;;;;;;3.10;59.39;100932.31;5009066;28;20056;-68
2021/12/07 05:12:05;;;;;;;28.05;14.88;;;;;;;3.05;59.51;100941.94;5009003;28;20112;-65
2021/12/07 05:14:36;;;;;;;27.52;15.32;;;;;;;3.04;59.73;100944.56;5008414;28;20509;-63
2021/12/07 05:39:02;;;;;;;25.27;14.57;;;;;;;3.02;60.05;100926.44;5011998;28;20053;-64
2021/12/07 05:41:29;;;;;;;26.40;15.07;;;;;;;2.97;60.25;100928.28;5011774;28;20487;-64
2021/12/07 05:43:56;;;;;;;27.67;15.98;;;;;;;2.99;60.24;100936.03;5011922;28;20053;-65
2021/12/07 05:46:23;;;;;;;28.02;16.13;;;;;;;2.94;60.29;100939.56;5011908;28;20056;-65
2021/12/07 05:48:50;;;;;;;28.25;18.23;;;;;;;2.97;60.46;100933.47;5011444;28;20648;-65
2021/12/07 05:51:16;;;;;;;27.45;17.05;;;;;;;2.96;60.50;100925.72;5022193;28;20041;-65
2021/12/07 05:53:43;;;;;;;29.98;17.95;;;;;;;2.94;60.65;100936.13;5031763;28;20049;-64
2021/12/07 05:56:10;;;;;;;30.60;17.90;;;;;;;2.94;60.99;100941.31;5031417;28;20497;-64
2021/12/07 05:58:37;;;;;;;29.90;17.52;;;;;;;2.89;60.82;100938.81;5031319;28;20049;-64
2021/12/07 06:01:04;;;;;;;28.88;17.08;;;;;;;2.90;61.02;100943.09;5033139;28;20051;-65
2021/12/07 06:03:31;;;;;;;29.95;17.13;;;;;;;2.91;61.04;100944.81;5037771;28;20045;-67
2021/12/07 06:06:03;;;;;;;31.98;17.45;;;;;;;2.91;61.07;100938.78;5031149;28;20052;-62
2021/12/07 06:08:36;;;;;;;33.33;19.15;;;;;;;2.90;61.16;100942.28;5031215;28;20056;-62
2021/12/07 06:11:05;;;;;;;28.17;17.65;;;;;;;2.89;61.24;100932.78;5030770;28;20077;-64
2021/12/07 06:13:32;;;;;;;29.38;18.90;;;;;;;2.88;61.29;100931.94;5031288;28;20041;-64
2021/12/07 06:16:05;;;;;;;29.52;17.63;;;;;;;2.90;61.38;100937.09;5031169;28;20516;-65
2021/12/07 06:18:33;;;;;;;30.95;17.70;;;;;;;2.87;61.40;100950.09;5046493;28;20049;-65
2021/12/07 06:21:00;;;;;;;27.88;18.50;;;;;;;2.86;61.64;100956.19;5036041;28;20509;-64
2021/12/07 06:23:27;;;;;;;27.27;17.00;;;;;;;2.82;61.60;100960.56;5031228;28;20095;-64
2021/12/07 06:25:56;;;;;;;33.75;17.83;;;;;;;2.80;61.52;100969.28;5031089;28;20053;-65
2021/12/07 06:28:23;;;;;;;31.77;15.95;;;;;;;2.80;61.53;100984.81;5031165;28;20054;-64
2021/12/07 06:30:49;;;;;;;30.13;17.23;;;;;;;2.78;61.57;100993.47;5030730;28;20061;-65
2021/12/07 06:33:20;;;;;;;28.80;17.00;;;;;;;2.84;61.26;100989.88;5030913;28;20059;-66
2021/12/07 06:35:49;;;;;;;33.35;15.90;;;;;;;2.90;61.02;100981.16;5033156;28;20500;-64
2021/12/07 06:38:18;;;;;;;27.15;15.73;;;;;;;2.89;61.18;100982.03;5023042;28;20052;-63
2021/12/07 06:40:45;;;;;;;30.88;15.93;;;;;;;2.87;61.10;100981.19;5010969;28;20046;-65
2021/12/07 06:43:12;;;;;;;32.45;17.23;;;;;;;2.81;61.05;100979.59;5010887;28;20057;-65
2021/12/07 06:45:38;;;;;;;28.65;16.55;;;;;;;2.75;61.18;100980.56;5011033;28;20054;-66
2021/12/07 06:48:06;;;;;;;30.67;16.42;;;;;;;2.73;61.27;100981.47;5010475;28;20057;-66
2021/12/07 06:50:34;;;;;;;28.85;16.02;;;;;;;2.70;61.12;100990.16;5010600;28;20391;-66
2021/12/07 06:53:01;;;;;;;32.70;16.45;;;;;;;2.72;61.04;100996.19;5011242;28;20054;-66
2021/12/07 06:55:28;;;;;;;28.70;16.67;;;;;;;2.71;61.07;100989.28;5025232;28;20045;-66
2021/12/07 06:57:55;;;;;;;27.98;16.48;;;;;;;2.70;60.88;100992.75;5038982;28;20128;-66
2021/12/07 07:00:23;;;;;;;27.83;16.63;;;;;;;2.74;60.90;100996.16;5039518;28;20553;-66
2021/12/07 07:02:49;;;;;;;37.80;20.98;;;;;;;2.75;61.01;100997.84;5040679;28;20402;-66
2021/12/07 07:05:17;;;;;;;36.25;20.90;;;;;;;2.73;60.79;101000.47;5039118;28;20201;-72
2021/12/07 07:07:44;;;;;;;33.25;19.30;;;;;;;2.71;60.83;100998.81;5039199;28;20056;-69
2021/12/07 07:10:16;;;;;;;28.08;17.00;;;;;;;2.69;60.85;100996.25;5022873;28;20466;-74
2021/12/07 07:12:44;;;;;;;27.00;15.77;;;;;;;2.75;60.47;100997.84;5037467;28;20056;-77
2021/12/07 07:15:26;;;;;;;26.55;15.48;;;;;;;2.77;60.50;101015.06;5038980;28;20096;-66
2021/12/07 07:17:52;;;;;;;27.15;15.48;;;;;;;2.87;60.21;101017.47;5035306;28;20519;-75
2021/12/07 07:20:46;;;;;;;30.70;16.75;;;;;;;3.04;59.79;101015.41;5037003;28;20049;-67
2021/12/07 07:23:14;;;;;;;29.23;16.85;;;;;;;3.16;59.43;101013.44;5035663;28;20124;-76
2021/12/07 07:25:41;;;;;;;28.35;16.55;;;;;;;3.26;59.08;101014.94;5038292;28;20486;-73
2021/12/07 07:28:07;;;;;;;31.17;18.05;;;;;;;3.34;59.07;101017.38;5032898;28;20053;-71
2021/12/07 07:30:34;;;;;;;30.55;18.25;;;;;;;3.39;58.79;101024.16;5039736;28;20041;-72
2021/12/07 07:33:01;;;;;;;29.98;18.42;;;;;;;3.49;58.55;101036.94;5037725;28;20236;-66
2021/12/07 07:35:29;;;;;;;29.30;17.35;;;;;;;3.50;58.58;101030.84;5038051;28;20059;-66
2021/12/07 07:38:04;;;;;;;;;;;;;;;3.53;58.48;101036.84;5045640;28;20048;-77
2021/12/07 07:40:32;;;;;;;;;;;;;;;3.59;58.47;101033.22;5043515;28;20345;-64
2021/12/07 07:43:00;;;;;;;28.58;16.33;;;;;;;3.66;58.47;101041.75;5022839;28;20278;-65
2021/12/07 07:45:35;;;;;;;29.25;16.52;;;;;;;3.71;58.39;101038.16;5023318;28;20401;-74
2021/12/07 07:48:18;;;;;;;28.08;16.27;;;;;;;3.74;58.22;101035.47;5026504;28;20490;-72
2021/12/07 07:51:01;;;;;;;28.35;16.08;;;;;;;3.77;58.22;101037.13;5024730;28;20053;-75
2021/12/07 07:53:28;;;;;;;31.23;16.95;;;;;;;3.83;58.18;101052.56;5028309;28;20045;-72
2021/12/07 07:56:01;;;;;;;27.17;16.63;;;;;;;3.89;58.14;101055.03;5028760;28;20069;-71
2021/12/07 07:58:29;;;;;;;29.20;16.33;;;;;;;3.93;58.14;101063.59;5027513;28;20049;-65
2021/12/07 08:00:56;;;;;;;30.60;16.30;;;;;;;4.04;58.08;101066.78;5020505;28;20506;-64
2021/12/07 08:03:23;;;;;;;26.58;15.57;;;;;;;4.11;57.99;101062.28;5028197;28;20050;-64
2021/12/07 08:05:50;;;;;;;28.75;16.65;;;;;;;4.25;57.73;101054.16;5028048;28;20049;-65
2021/12/07 08:08:19;;;;;;;26.70;15.52;;;;;;;4.41;57.39;101041.63;5027674;28;20049;-65
2021/12/07 08:10:46;;;;;;;26.65;16.02;;;;;;;4.68;56.83;101036.59;5027307;28;20056;-64
2021/12/07 08:13:14;;;;;;;29.65;17.83;;;;;;;4.99;56.50;101043.53;5027609;28;20486;-65
2021/12/07 08:15:43;;;;;;;30.92;18.02;;;;;;;5.34;55.65;101039.06;5027766;28;20136;-64
2021/12/07 08:18:11;;;;;;;29.25;16.42;;;;;;;5.68;54.71;101038.84;5017459;28;20058;-63
2021/12/07 08:20:40;;;;;;;26.02;15.15;;;;;;;5.97;53.96;101029.25;5008019;28;20184;-66
2021/12/07 08:23:06;;;;;;;29.52;16.30;;;;;;;6.27;53.45;101042.22;5007844;28;20104;-63
2021/12/07 08:25:45;;;;;;;26.50;16.02;;;;;;;6.55;52.84;101033.41;5007965;28;20410;-66
2021/12/07 08:28:14;;;;;;;25.65;15.88;;;;;;;6.85;52.17;101041.06;5014112;28;20045;-63
2021/12/07 08:30:42;;;;;;;24.92;14.57;;;;;;;7.10;51.53;101032.34;5037430;28;20044;-63
2021/12/07 08:33:09;;;;;;;21.30;13.65;;;;;;;7.29;51.07;101032.50;5035935;28;20477;-63
2021/12/07 08:35:37;;;;;;;21.00;12.60;;;;;;;7.47;50.86;101033.53;5037771;28;20115;-62
2021/12/07 08:38:05;;;;;;;20.77;12.73;;;;;;;7.64;50.42;101032.88;5038555;28;20534;-66
2021/12/07 08:40:34;;;;;;;18.63;12.18;;;;;;;7.83;50.08;101032.97;5035074;28;20060;-64
2021/12/07 08:43:01;;;;;;;20.38;11.45;;;;;;;7.92;49.82;101043.09;5036515;28;20045;-61
2021/12/07 08:45:28;;;;;;;18.17;11.70;;;;;;;8.11;49.66;101040.56;5035692;28;20053;-63
2021/12/07 08:47:56;;;;;;;17.88;11.05;;;;;;;8.29;49.23;101044.16;5037330;28;20052;-62
2021/12/07 08:50:26;;;;;;;20.08;11.63;;;;;;;8.50;48.75;101041.56;5029384;28;20045;-62
2021/12/07 08:53:02;;;;;;;16.65;11.38;;;;;;;8.64;48.18;101052.28;5026842;28;20056;-62
2021/12/07 09:01:03;;;;;;;17.30;11.13;;;;;;;9.17;47.42;101049.97;5010781;28;20054;-63
2021/12/07 09:03:30;;;;;;;17.60;10.93;;;;;;;9.36;46.94;101049.09;5027613;28;20284;-62
2021/12/07 09:05:58;;;;;;;20.98;12.43;;;;;;;9.52;46.60;101039.59;5031837;28;20042;-62
2021/12/07 09:08:24;;;;;;;18.40;10.95;;;;;;;9.63;46.36;101046.94;5031905;28;20053;-60
2021/12/07 09:10:52;;;;;;;17.48;11.63;;;;;;;9.77;45.92;101047.13;5029775;28;20046;-61
2021/12/07 09:13:20;;;;;;;17.15;10.80;;;;;;;9.90;45.76;101055.28;5032078;28;20099;-64
2021/12/07 09:15:47;;;;;;;16.60;10.90;;;;;;;10.05;45.38;101058.06;5031761;28;20486;-61
2021/12/07 09:18:13;;;;;;;18.13;12.57;;;;;;;10.18;45.27;101060.91;5031701;28;20061;-62
2021/12/07 09:20:40;;;;;;;21.48;12.68;;;;;;;10.27;45.39;101061.31;5031236;28;20409;-61
2021/12/07 09:23:07;;;;;;;20.50;12.70;;;;;;;10.43;45.21;101060.56;5036584;28;20045;-61
2021/12/07 09:25:34;;;;;;;23.20;14.88;;;;;;;10.60;45.19;101059.69;5037266;28;20049;-61
2021/12/07 09:28:01;;;;;;;24.48;15.82;;;;;;;10.75;45.04;101069.41;5030885;28;20050;-61
2021/12/07 09:30:28;;;;;;;22.10;15.23;;;;;;;10.90;45.00;101080.03;5031025;28;20053;-61
2021/12/07 09:32:55;;;;;;;22.85;15.88;;;;;;;10.92;45.20;101081.63;5031410;28;20049;-61
2021/12/07 09:35:23;;;;;;;25.52;15.73;;;;;;;10.95;45.21;101083.25;5034131;28;20128;-61
2021/12/07 09:37:52;;;;;;;23.23;15.80;;;;;;;10.97;45.07;101081.41;5040879;28;20544;-62
2021/12/07 09:40:22;;;;;;;24.67;16.17;;;;;;;11.17;44.71;101075.06;5036294;28;20486;-62
2021/12/07 09:42:50;;;;;;;26.13;16.60;;;;;;;11.24;44.48;101086.94;5040798;28;20041;-62
2021/12/07 09:45:19;;;;;;;22.98;16.40;;;;;;;11.14;44.66;101082.28;5041905;28;20117;-62
2021/12/07 09:47:46;;;;;;;27.33;17.40;;;;;;;11.35;44.47;101081.13;5033486;28;20048;-61
2021/12/07 09:50:21;;;;;;;24.65;16.23;;;;;;;11.51;43.94;101086.38;5040548;28;20099;-61
2021/12/07 09:52:49;;;;;;;27.20;17.80;;;;;;;11.64;43.90;101080.44;5025448;28;20418;-61
2021/12/07 09:55:16;;;;;;;24.52;17.33;;;;;;;11.70;43.44;101077.47;5011503;28;20388;-61
2021/12/07 09:57:44;;;;;;;27.33;18.13;;;;;;;11.74;43.47;101073.72;5011739;28;20053;-61
2021/12/07 10:00:13;;;;;;;29.17;19.17;;;;;;;11.76;43.37;101069.25;5010934;28;20060;-61
2021/12/07 10:02:45;;;;;;;28.67;19.02;;;;;;;11.85;43.18;101067.88;5011161;28;20046;-63
2021/12/07 10:05:16;;;;;;;32.47;22.50;;;;;;;11.95;42.89;101076.94;5026830;28;20045;-61
2021/12/07 10:07:43;;;;;;;75.90;48.47;;;;;;;12.00;42.90;101063.53;5029838;28;20501;-61
2021/12/07 10:10:22;;;;;;;34.88;21.33;;;;;;;11.89;43.23;101064.13;5029533;28;20058;-61
2021/12/07 10:12:50;;;;;;;51.13;28.60;;;;;;;11.96;43.04;101059.38;5030762;28;20081;-62
2021/12/07 10:15:18;;;;;;;31.67;21.70;;;;;;;12.06;42.80;101068.44;5030617;28;20048;-61
2021/12/07 10:17:58;;;;;;;37.33;25.05;;;;;;;12.21;42.72;101056.19;5030102;28;20061;-61
2021/12/07 10:20:47;;;;;;;52.88;30.48;;;;;;;12.28;42.20;101056.66;5030453;28;20041;-61
2021/12/07 10:23:22;;;;;;;30.27;22.83;;;;;;;12.33;41.95;101050.22;5030328;28;20045;-62
2021/12/07 10:26:05;;;;;;;37.42;32.42;;;;;;;12.35;41.32;101048.31;5020777;28;20042;-62
2021/12/07 10:28:42;;;;;;;21.58;14.60;;;;;;;12.43;40.80;101037.34;5010678;28;20054;-68
2021/12/07 10:31:09;;;;;;;30.83;22.05;;;;;;;12.48;40.55;101024.78;5010438;28;20054;-62
2021/12/07 10:33:52;;;;;;;34.17;22.83;;;;;;;12.50;40.12;101029.94;5010670;28;20993;-62
2021/12/07 10:36:19;;;;;;;20.50;14.05;;;;;;;12.43;40.04;101018.94;5010737;28;20060;-62
2021/12/07 10:39:07;;;;;;;20.92;14.13;;;;;;;12.49;39.92;101018.53;5010467;28;20042;-62
2021/12/07 10:41:38;;;;;;;19.88;12.45;;;;;;;12.35;40.09;101024.63;5023656;28;20061;-63
2021/12/07 10:44:06;;;;;;;18.05;11.45;;;;;;;12.37;39.99;101019.31;5029694;28;20049;-62
2021/12/07 10:46:38;;;;;;;37.72;23.10;;;;;;;12.26;40.34;101025.19;5030096;28;20049;-62
2021/12/07 10:49:13;;;;;;;35.85;21.25;;;;;;;12.16;40.62;101032.75;5030042;28;20042;-63
2021/12/07 10:51:53;;;;;;;19.40;12.57;;;;;;;11.99;41.03;101028.50;5035006;28;20045;-62
2021/12/07 10:54:22;;;;;;;60.58;29.25;;;;;;;11.68;41.56;101026.75;5037869;28;20045;-62
2021/12/07 10:56:50;;;;;;;28.13;16.00;;;;;;;11.48;41.76;101034.00;5038331;28;20513;-62
2021/12/07 10:59:17;;;;;;;39.95;22.50;;;;;;;11.09;43.08;101030.00;5036575;28;20038;-62
2021/12/07 11:01:47;;;;;;;45.65;25.00;;;;;;;11.00;43.36;101026.09;5033631;28;20050;-62
2021/12/07 11:04:23;;;;;;;32.00;19.98;;;;;;;10.83;43.94;101034.88;5029710;28;20049;-62
2021/12/07 11:07:07;;;;;;;45.47;26.70;;;;;;;10.59;44.38;101031.75;5029618;28;20501;-63
2021/12/07 11:12:34;;;;;;;18.48;12.13;;;;;;;10.17;45.20;101007.63;5016377;28;20048;-62
2021/12/07 11:15:02;;;;;;;94.43;58.75;;;;;;;10.01;45.64;101004.06;5034051;28;20046;-65
2021/12/07 11:17:33;;;;;;;19.58;12.02;;;;;;;9.93;45.61;100986.13;5009877;28;20054;-62
2021/12/07 11:20:02;;;;;;;13.25;7.75;;;;;;;9.90;45.47;100975.75;5009704;28;20103;-63
2021/12/07 11:22:33;;;;;;;10.60;6.60;;;;;;;9.85;45.38;100969.91;5017384;28;20040;-63
2021/12/07 11:25:02;;;;;;;12.68;7.10;;;;;;;9.80;45.11;100976.22;5036635;28;20045;-63
2021/12/07 11:30:20;;;;;;;17.05;10.75;;;;;;;9.89;44.76;100971.44;5046991;28;20045;-63
2021/12/07 11:32:56;;;;;;;61.47;34.25;;;;;;;9.88;44.76;100975.84;5028899;28;20471;-62
2021/12/07 11:35:30;;;;;;;227.63;105.35;;;;;;;9.93;44.65;100971.22;5034242;28;20386;-62
2021/12/07 11:38:01;;;;;;;28.75;16.63;;;;;;;9.89;44.48;100974.94;5035161;28;20067;-62
2021/12/07 11:40:33;;;;;;;25.13;15.93;;;;;;;9.93;44.29;100992.19;5032422;28;20430;-63
2021/12/07 11:43:00;;;;;;;23.55;13.50;;;;;;;9.89;44.26;100988.03;5023855;28;20049;-63
2021/12/07 11:45:33;;;;;;;18.10;10.73;;;;;;;9.88;44.14;100975.84;5009691;28;20046;-63
2021/12/07 11:48:04;;;;;;;20.13;13.32;;;;;;;9.93;43.88;100973.00;5009107;28;20053;-64
2021/12/07 11:50:47;;;;;;;77.35;45.88;;;;;;;9.90;43.66;100975.75;5017666;28;20054;-62
2021/12/07 11:53:17;;;;;;;48.30;30.88;;;;;;;9.94;43.64;100967.69;5008935;28;20060;-63
2021/12/07 11:55:47;;;;;;;103.43;64.30;;;;;;;10.00;43.67;100958.63;5009281;28;20054;-66
2021/12/07 11:58:15;;;;;;;88.95;52.38;;;;;;;9.99;43.82;100953.47;5009149;28;20206;-64
2021/12/07 12:00:47;;;;;;;111.18;63.72;;;;;;;9.96;43.79;100955.31;5007841;28;20060;-63
2021/12/07 12:03:17;;;;;;;80.82;44.65;;;;;;;9.99;43.99;100959.56;5008221;28;20060;-63
2021/12/07 12:05:46;;;;;;;28.75;14.90;;;;;;;9.96;44.15;100946.63;5009412;28;20042;-63
2021/12/07 12:08:18;;;;;;;48.53;26.00;;;;;;;9.95;44.29;100939.69;5008916;28;20108;-62
2021/12/07 12:11:03;;;;;;;41.10;24.05;;;;;;;9.96;44.39;100941.38;5015717;28;20052;-63
2021/12/07 12:13:46;;;;;;;23.75;20.25;;;;;;;10.17;44.42;100939.44;5027180;28;20136;-64
2021/12/07 12:16:33;;;;;;;21.45;14.05;;;;;;;10.07;44.55;100935.59;5031910;28;20048;-63
2021/12/07 12:19:10;;;;;;;33.50;13.65;;;;;;;10.08;44.37;100930.28;5011941;28;20041;-63
2021/12/07 12:21:42;;;;;;;41.97;22.05;;;;;;;10.10;44.40;100922.31;5021788;28;20676;-64
2021/12/07 12:24:31;;;;;;;34.47;18.08;;;;;;;10.06;44.43;100920.78;5024634;28;20057;-63
2021/12/07 12:27:10;;;;;;;28.83;14.50;;;;;;;10.00;44.07;100908.00;5013637;28;20419;-64
2021/12/07 12:29:39;;;;;;;34.58;16.90;;;;;;;9.90;43.51;100911.09;5007789;28;20050;-63
2021/12/07 12:32:07;;;;;;;31.05;15.10;;;;;;;9.92;43.30;100908.38;5009852;28;20041;-64
2021/12/07 12:34:47;;;;;;;280.90;155.60;;;;;;;9.90;43.24;100908.47;5014337;28;20080;-64
2021/12/07 12:37:24;;;;;;;50.95;28.38;;;;;;;9.89;42.75;100903.28;5017954;28;20037;-62
2021/12/07 12:39:57;;;;;;;65.93;37.22;;;;;;;9.86;42.32;100899.06;5031989;28;20050;-62
2021/12/07 12:42:36;;;;;;;45.30;26.50;;;;;;;9.80;41.88;100897.59;5029996;28;20054;-64
2021/12/07 12:45:30;;;;;;;31.38;16.30;;;;;;;9.70;41.04;100904.25;5031124;28;20049;-63
2021/12/07 12:48:08;;;;;;;15.02;8.32;;;;;;;9.70;40.75;100900.75;5031432;28;20490;-64
2021/12/07 12:50:45;;;;;;;14.90;8.85;;;;;;;9.60;40.31;100900.41;5032189;28;20476;-63
2021/12/07 12:53:15;;;;;;;6.88;4.60;;;;;;;9.54;39.82;100890.22;5036996;28;20045;-63
2021/12/07 12:55:51;;;;;;;18.67;9.27;;;;;;;9.46;39.29;100885.38;5047631;28;20056;-64
2021/12/07 12:58:29;;;;;;;10.02;4.47;;;;;;;9.45;39.15;100886.28;5052167;28;20386;-63
2021/12/07 13:01:00;;;;;;;13.85;9.25;;;;;;;9.48;38.82;100876.50;5051227;28;20052;-63
2021/12/07 13:03:44;;;;;;;7.63;4.20;;;;;;;9.47;38.73;100887.03;5052051;28;20049;-65
2021/12/07 13:06:14;;;;;;;6.68;2.30;;;;;;;9.46;38.68;100875.72;5033640;28;20061;-63
2021/12/07 13:09:18;;;;;;;3.95;1.80;;;;;;;9.47;38.45;100885.28;5031746;28;20049;-64
2021/12/07 13:11:53;;;;;;;28.52;15.02;;;;;;;9.42;38.55;100895.13;5020065;28;20057;-62
2021/12/07 13:14:19;;;;;;;27.77;11.73;;;;;;;9.36;38.92;100899.81;5031500;28;20045;-62
2021/12/07 13:17:04;;;;;;;40.13;17.52;;;;;;;9.40;38.98;100910.06;5039644;28;20099;-62
2021/12/07 13:19:32;;;;;;;38.97;16.38;;;;;;;9.40;39.00;100909.22;5038057;28;20045;-63